sensor_id;sensor_type;location;lat;lon;timestamp;pressure;altitude;pressure_sealevel;temperature;humidity
22031;BME280;11179;52.106;21.024;2024-02-23T00:00:29;98459.00;;;8.25;59.33
22031;BME280;11179;52.106;21.024;2024-02-23T00:02:54;98464.47;;;8.25;59.25
22031;BME280;11179;52.106;21.024;2024-02-23T00:05:22;98468.00;;;8.25;59.24
22031;BME280;11179;52.106;21.024;2024-02-23T00:07:47;98466.91;;;8.26;59.34
22031;BME280;11179;52.106;21.024;2024-02-23T00:10:13;98452.19;;;8.22;59.16
22031;BME280;11179;52.106;21.024;2024-02-23T00:12:38;98450.81;;;8.25;59.11
22031;BME280;11179;52.106;21.024;2024-02-23T00:15:04;98447.25;;;8.24;58.99
22031;BME280;11179;52.106;21.024;2024-02-23T00:17:30;98455.47;;;8.24;59.29
22031;BME280;11179;52.106;21.024;2024-02-23T00:19:55;98450.56;;;8.21;59.28
22031;BME280;11179;52.106;21.024;2024-02-23T00:22:20;98451.91;;;8.24;59.27
22031;BME280;11179;52.106;21.024;2024-02-23T00:24:46;98456.56;;;8.23;59.35
22031;BME280;11179;52.106;21.024;2024-02-23T00:27:11;98462.03;;;8.23;59.30
22031;BME280;11179;52.106;21.024;2024-02-23T00:29:37;98451.59;;;8.25;59.44
22031;BME280;11179;52.106;21.024;2024-02-23T00:32:04;98448.88;;;8.25;59.53
22031;BME280;11179;52.106;21.024;2024-02-23T00:34:29;98445.09;;;8.21;59.46
22031;BME280;11179;52.106;21.024;2024-02-23T00:36:57;98444.00;;;8.22;59.35
22031;BME280;11179;52.106;21.024;2024-02-23T00:39:22;98445.09;;;8.21;59.72
22031;BME280;11179;52.106;21.024;2024-02-23T00:41:48;98454.13;;;8.22;59.60
22031;BME280;11179;52.106;21.024;2024-02-23T00:44:13;98436.91;;;8.21;59.70
22031;BME280;11179;52.106;21.024;2024-02-23T00:46:39;98440.44;;;8.22;59.62
22031;BME280;11179;52.106;21.024;2024-02-23T00:49:05;98435.81;;;8.22;59.70
22031;BME280;11179;52.106;21.024;2024-02-23T00:51:31;98438.25;;;8.24;59.59
22031;BME280;11179;52.106;21.024;2024-02-23T00:53:56;98437.44;;;8.23;59.71
22031;BME280;11179;52.106;21.024;2024-02-23T00:56:21;98427.59;;;8.22;59.57
22031;BME280;11179;52.106;21.024;2024-02-23T00:58:47;98427.88;;;8.21;59.70
22031;BME280;11179;52.106;21.024;2024-02-23T01:01:12;98422.41;;;8.21;59.90
22031;BME280;11179;52.106;21.024;2024-02-23T01:03:37;98418.88;;;8.20;59.80
22031;BME280;11179;52.106;21.024;2024-02-23T01:06:03;98414.50;;;8.19;59.60
22031;BME280;11179;52.106;21.024;2024-02-23T01:08:29;98413.41;;;8.20;59.54
22031;BME280;11179;52.106;21.024;2024-02-23T01:10:54;98409.28;;;8.18;59.87
22031;BME280;11179;52.106;21.024;2024-02-23T01:13:19;98407.41;;;8.18;59.97
22031;BME280;11179;52.106;21.024;2024-02-23T01:15:44;98404.94;;;8.17;60.05
22031;BME280;11179;52.106;21.024;2024-02-23T01:18:10;98404.66;;;8.18;60.04
22031;BME280;11179;52.106;21.024;2024-02-23T01:20:36;98401.66;;;8.15;59.92
22031;BME280;11179;52.106;21.024;2024-02-23T01:23:01;98399.75;;;8.15;59.80
22031;BME280;11179;52.106;21.024;2024-02-23T01:25:26;98398.66;;;8.16;60.30
22031;BME280;11179;52.106;21.024;2024-02-23T01:27:52;98394.28;;;8.15;60.16
22031;BME280;11179;52.106;21.024;2024-02-23T01:30:17;98391.53;;;8.15;60.22
22031;BME280;11179;52.106;21.024;2024-02-23T01:32:44;98395.38;;;8.14;60.06
22031;BME280;11179;52.106;21.024;2024-02-23T01:35:10;98389.63;;;8.16;60.40
22031;BME280;11179;52.106;21.024;2024-02-23T01:37:35;98392.66;;;8.14;60.43
22031;BME280;11179;52.106;21.024;2024-02-23T01:40:01;98392.06;;;8.17;60.24
22031;BME280;11179;52.106;21.024;2024-02-23T01:42:26;98394.81;;;8.17;60.41
22031;BME280;11179;52.106;21.024;2024-02-23T01:44:52;98391.81;;;8.19;60.51
22031;BME280;11179;52.106;21.024;2024-02-23T01:47:18;98394.25;;;8.20;60.50
22031;BME280;11179;52.106;21.024;2024-02-23T01:49:46;98392.88;;;8.18;60.45
22031;BME280;11179;52.106;21.024;2024-02-23T01:52:12;98393.75;;;8.18;60.60
22031;BME280;11179;52.106;21.024;2024-02-23T01:54:39;98391.81;;;8.19;60.66
22031;BME280;11179;52.106;21.024;2024-02-23T01:57:04;98399.44;;;8.22;60.79
22031;BME280;11179;52.106;21.024;2024-02-23T01:59:30;98396.91;;;8.25;60.51
22031;BME280;11179;52.106;21.024;2024-02-23T02:01:56;98389.53;;;8.26;60.60
22031;BME280;11179;52.106;21.024;2024-02-23T02:04:21;98394.72;;;8.27;60.86
22031;BME280;11179;52.106;21.024;2024-02-23T02:06:47;98382.97;;;8.27;61.09
22031;BME280;11179;52.106;21.024;2024-02-23T02:09:13;98393.31;;;8.30;60.93
22031;BME280;11179;52.106;21.024;2024-02-23T02:11:48;98388.69;;;8.30;60.77
22031;BME280;11179;52.106;21.024;2024-02-23T02:14:14;98379.66;;;8.30;60.93
22031;BME280;11179;52.106;21.024;2024-02-23T02:16:39;98381.56;;;8.29;60.94
22031;BME280;11179;52.106;21.024;2024-02-23T02:19:05;98374.72;;;8.32;61.11
22031;BME280;11179;52.106;21.024;2024-02-23T02:21:34;98379.38;;;8.31;61.22
22031;BME280;11179;52.106;21.024;2024-02-23T02:23:59;98375.81;;;8.31;61.11
22031;BME280;11179;52.106;21.024;2024-02-23T02:26:24;98375.81;;;8.31;61.07
22031;BME280;11179;52.106;21.024;2024-02-23T02:28:50;98379.06;;;8.33;61.30
22031;BME280;11179;52.106;21.024;2024-02-23T02:31:15;98374.44;;;8.33;61.60
22031;BME280;11179;52.106;21.024;2024-02-23T02:33:41;98376.88;;;8.35;61.14
22031;BME280;11179;52.106;21.024;2024-02-23T02:36:06;98376.59;;;8.37;61.16
22031;BME280;11179;52.106;21.024;2024-02-23T02:38:32;98379.03;;;8.38;61.27
22031;BME280;11179;52.106;21.024;2024-02-23T02:41:00;98374.38;;;8.39;61.30
22031;BME280;11179;52.106;21.024;2024-02-23T02:43:27;98371.03;;;8.42;61.45
22031;BME280;11179;52.106;21.024;2024-02-23T02:45:52;98374.88;;;8.41;61.45
22031;BME280;11179;52.106;21.024;2024-02-23T02:48:17;98366.66;;;8.41;61.58
22031;BME280;11179;52.106;21.024;2024-02-23T02:50:43;98375.41;;;8.43;61.68
22031;BME280;11179;52.106;21.024;2024-02-23T02:53:09;98375.41;;;8.43;61.48
22031;BME280;11179;52.106;21.024;2024-02-23T02:55:40;98364.97;;;8.45;61.49
22031;BME280;11179;52.106;21.024;2024-02-23T02:58:06;98383.03;;;8.46;61.38
22031;BME280;11179;52.106;21.024;2024-02-23T03:00:31;98363.13;;;8.40;61.68
22031;BME280;11179;52.106;21.024;2024-02-23T03:02:57;98374.81;;;8.46;61.68
22031;BME280;11179;52.106;21.024;2024-02-23T03:05:22;98373.44;;;8.48;61.74
22031;BME280;11179;52.106;21.024;2024-02-23T03:07:47;98377.25;;;8.47;61.57
22031;BME280;11179;52.106;21.024;2024-02-23T03:10:13;98372.09;;;8.46;62.02
22031;BME280;11179;52.106;21.024;2024-02-23T03:12:38;98368.81;;;8.44;62.14
22031;BME280;11179;52.106;21.024;2024-02-23T03:15:04;98370.00;;;8.38;62.73
22031;BME280;11179;52.106;21.024;2024-02-23T03:17:30;98382.06;;;8.37;63.17
22031;BME280;11179;52.106;21.024;2024-02-23T03:19:55;98393.56;;;8.33;63.41
22031;BME280;11179;52.106;21.024;2024-02-23T03:22:21;98383.50;;;8.29;63.91
22031;BME280;11179;52.106;21.024;2024-02-23T03:24:46;98393.41;;;8.25;64.02
22031;BME280;11179;52.106;21.024;2024-02-23T03:27:11;98390.44;;;8.21;64.35
22031;BME280;11179;52.106;21.024;2024-02-23T03:29:38;98389.09;;;8.19;65.00
22031;BME280;11179;52.106;21.024;2024-02-23T03:32:04;98392.34;;;8.16;65.08
22031;BME280;11179;52.106;21.024;2024-02-23T03:34:29;98389.38;;;8.12;65.46
22031;BME280;11179;52.106;21.024;2024-02-23T03:36:54;98391.09;;;8.08;66.12
22031;BME280;11179;52.106;21.024;2024-02-23T03:39:20;98393.28;;;8.06;66.17
22031;BME280;11179;52.106;21.024;2024-02-23T03:41:45;98393.28;;;8.06;65.83
22031;BME280;11179;52.106;21.024;2024-02-23T03:44:10;98390.84;;;8.05;65.88
22031;BME280;11179;52.106;21.024;2024-02-23T03:46:36;98396.06;;;8.01;66.16
22031;BME280;11179;52.106;21.024;2024-02-23T03:49:01;98389.56;;;7.97;66.30
22031;BME280;11179;52.106;21.024;2024-02-23T03:51:26;98405.38;;;8.00;66.83
22031;BME280;11179;52.106;21.024;2024-02-23T03:53:52;98405.97;;;7.97;67.01
22031;BME280;11179;52.106;21.024;2024-02-23T03:56:17;98410.63;;;7.96;66.78
22031;BME280;11179;52.106;21.024;2024-02-23T03:58:43;98409.84;;;7.91;67.21
22031;BME280;11179;52.106;21.024;2024-02-23T04:01:08;98415.03;;;7.92;67.14
22031;BME280;11179;52.106;21.024;2024-02-23T04:03:34;98422.13;;;7.93;67.60
22031;BME280;11179;52.106;21.024;2024-02-23T04:06:00;98421.88;;;7.90;67.62
22031;BME280;11179;52.106;21.024;2024-02-23T04:08:25;98426.00;;;7.87;67.94
22031;BME280;11179;52.106;21.024;2024-02-23T04:10:51;98427.34;;;7.90;68.14
22031;BME280;11179;52.106;21.024;2024-02-23T04:13:16;98427.91;;;7.87;68.86
22031;BME280;11179;52.106;21.024;2024-02-23T04:15:43;98421.41;;;7.83;68.77
22031;BME280;11179;52.106;21.024;2024-02-23T04:18:09;98433.97;;;7.84;68.84
22031;BME280;11179;52.106;21.024;2024-02-23T04:20:34;98439.44;;;7.84;68.72
22031;BME280;11179;52.106;21.024;2024-02-23T04:22:59;98429.06;;;7.81;69.16
22031;BME280;11179;52.106;21.024;2024-02-23T04:25:25;98428.25;;;7.80;69.46
22031;BME280;11179;52.106;21.024;2024-02-23T04:27:50;98435.34;;;7.81;69.76
22031;BME280;11179;52.106;21.024;2024-02-23T04:30:16;98432.09;;;7.79;69.75
22031;BME280;11179;52.106;21.024;2024-02-23T04:32:41;98440.56;;;7.78;69.66
22031;BME280;11179;52.106;21.024;2024-02-23T04:35:07;98440.03;;;7.76;70.21
22031;BME280;11179;52.106;21.024;2024-02-23T04:37:33;98442.75;;;7.76;69.87
22031;BME280;11179;52.106;21.024;2024-02-23T04:39:58;98435.66;;;7.75;70.37
22031;BME280;11179;52.106;21.024;2024-02-23T04:42:23;98444.16;;;7.73;70.70
22031;BME280;11179;52.106;21.024;2024-02-23T04:44:49;98453.75;;;7.71;70.85
22031;BME280;11179;52.106;21.024;2024-02-23T04:47:14;98437.94;;;7.68;71.04
22031;BME280;11179;52.106;21.024;2024-02-23T04:49:40;98445.31;;;7.67;71.08
22031;BME280;11179;52.106;21.024;2024-02-23T04:52:05;98446.69;;;7.64;71.62
22031;BME280;11179;52.106;21.024;2024-02-23T04:54:31;98446.66;;;7.70;71.94
22031;BME280;11179;52.106;21.024;2024-02-23T04:56:56;98448.03;;;7.67;72.00
22031;BME280;11179;52.106;21.024;2024-02-23T04:59:21;98455.66;;;7.70;72.21
22031;BME280;11179;52.106;21.024;2024-02-23T05:01:47;98461.13;;;7.70;72.38
22031;BME280;11179;52.106;21.024;2024-02-23T05:04:12;98455.13;;;7.68;72.35
22031;BME280;11179;52.106;21.024;2024-02-23T05:06:38;98467.41;;;7.71;72.62
22031;BME280;11179;52.106;21.024;2024-02-23T05:09:03;98460.31;;;7.70;72.78
22031;BME280;11179;52.106;21.024;2024-02-23T05:11:28;98468.22;;;7.71;73.09
22031;BME280;11179;52.106;21.024;2024-02-23T05:13:54;98473.38;;;7.73;73.16
22031;BME280;11179;52.106;21.024;2024-02-23T05:16:19;98471.78;;;7.72;73.13
22031;BME280;11179;52.106;21.024;2024-02-23T05:18:45;98474.78;;;7.70;72.99
22031;BME280;11179;52.106;21.024;2024-02-23T05:21:12;98472.06;;;7.70;73.29
22031;BME280;11179;52.106;21.024;2024-02-23T05:23:37;98471.81;;;7.67;74.06
22031;BME280;11179;52.106;21.024;2024-02-23T05:26:02;98472.09;;;7.65;74.63
22031;BME280;11179;52.106;21.024;2024-02-23T05:28:28;98485.75;;;7.65;74.74
22031;BME280;11179;52.106;21.024;2024-02-23T05:30:54;98485.47;;;7.67;74.50
22031;BME280;11179;52.106;21.024;2024-02-23T05:33:19;98494.75;;;7.65;74.97
22031;BME280;11179;52.106;21.024;2024-02-23T05:35:48;98496.38;;;7.67;74.84
22031;BME280;11179;52.106;21.024;2024-02-23T05:38:17;98501.31;;;7.64;75.10
22031;BME280;11179;52.106;21.024;2024-02-23T05:40:43;98496.94;;;7.63;75.17
22031;BME280;11179;52.106;21.024;2024-02-23T05:43:08;98505.97;;;7.64;75.24
22031;BME280;11179;52.106;21.024;2024-02-23T05:45:34;98504.59;;;7.61;75.65
22031;BME280;11179;52.106;21.024;2024-02-23T05:47:59;98506.53;;;7.61;75.81
22031;BME280;11179;52.106;21.024;2024-02-23T05:50:24;98510.34;;;7.60;76.32
22031;BME280;11179;52.106;21.024;2024-02-23T05:52:50;98506.56;;;7.56;76.31
22031;BME280;11179;52.106;21.024;2024-02-23T05:55:15;98515.81;;;7.60;76.11
22031;BME280;11179;52.106;21.024;2024-02-23T05:57:41;98521.00;;;7.61;76.07
22031;BME280;11179;52.106;21.024;2024-02-23T06:00:06;98521.28;;;7.60;76.56
22031;BME280;11179;52.106;21.024;2024-02-23T06:02:35;98525.06;;;7.64;76.54
22031;BME280;11179;52.106;21.024;2024-02-23T06:05:00;98527.81;;;7.64;76.91
22031;BME280;11179;52.106;21.024;2024-02-23T06:07:25;98534.63;;;7.67;76.72
22031;BME280;11179;52.106;21.024;2024-02-23T06:09:56;98542.28;;;7.64;76.77
22031;BME280;11179;52.106;21.024;2024-02-23T06:12:22;98537.34;;;7.67;76.89
22031;BME280;11179;52.106;21.024;2024-02-23T06:14:47;98546.09;;;7.69;76.62
22031;BME280;11179;52.106;21.024;2024-02-23T06:17:12;98548.53;;;7.70;76.67
22031;BME280;11179;52.106;21.024;2024-02-23T06:19:38;98543.31;;;7.74;76.62
22031;BME280;11179;52.106;21.024;2024-02-23T06:22:03;98557.25;;;7.72;76.87
22031;BME280;11179;52.106;21.024;2024-02-23T06:24:28;98553.72;;;7.72;76.84
22031;BME280;11179;52.106;21.024;2024-02-23T06:26:54;98558.31;;;7.76;76.46
22031;BME280;11179;52.106;21.024;2024-02-23T06:29:19;98567.59;;;7.75;76.92
22031;BME280;11179;52.106;21.024;2024-02-23T06:31:44;98562.97;;;7.76;76.79
22031;BME280;11179;52.106;21.024;2024-02-23T06:34:14;98560.22;;;7.76;76.81
22031;BME280;11179;52.106;21.024;2024-02-23T06:36:39;98574.97;;;7.75;77.35
22031;BME280;11179;52.106;21.024;2024-02-23T06:39:05;98577.44;;;7.76;77.47
22031;BME280;11179;52.106;21.024;2024-02-23T06:41:30;98571.69;;;7.78;77.52
22031;BME280;11179;52.106;21.024;2024-02-23T06:43:56;98566.22;;;7.78;77.57
22031;BME280;11179;52.106;21.024;2024-02-23T06:46:21;98574.97;;;7.80;77.39
22031;BME280;11179;52.106;21.024;2024-02-23T06:48:47;98585.88;;;7.80;77.92
22031;BME280;11179;52.106;21.024;2024-02-23T06:51:13;98584.25;;;7.79;77.78
22031;BME280;11179;52.106;21.024;2024-02-23T06:53:39;98584.25;;;7.79;78.00
22031;BME280;11179;52.106;21.024;2024-02-23T06:56:05;98588.88;;;7.83;78.11
22031;BME280;11179;52.106;21.024;2024-02-23T06:58:30;98590.78;;;7.83;78.28
22031;BME280;11179;52.106;21.024;2024-02-23T07:00:56;98586.44;;;7.82;78.38
22031;BME280;11179;52.106;21.024;2024-02-23T07:03:21;98589.97;;;7.82;78.49
22031;BME280;11179;52.106;21.024;2024-02-23T07:05:47;98595.66;;;7.86;78.30
22031;BME280;11179;52.106;21.024;2024-02-23T07:08:13;98599.75;;;7.88;78.26
22031;BME280;11179;52.106;21.024;2024-02-23T07:10:38;98604.13;;;7.89;78.19
22031;BME280;11179;52.106;21.024;2024-02-23T07:13:04;98607.66;;;7.90;78.32
22031;BME280;11179;52.106;21.024;2024-02-23T07:15:29;98614.78;;;7.91;78.47
22031;BME280;11179;52.106;21.024;2024-02-23T07:17:55;98625.41;;;7.92;78.56
22031;BME280;11179;52.106;21.024;2024-02-23T07:20:22;98613.41;;;7.93;78.83
22031;BME280;11179;52.106;21.024;2024-02-23T07:22:47;98618.31;;;7.96;79.08
22031;BME280;11179;52.106;21.024;2024-02-23T07:25:19;98623.22;;;7.94;78.95
22031;BME280;11179;52.106;21.024;2024-02-23T07:27:48;98621.84;;;7.97;78.92
22031;BME280;11179;52.106;21.024;2024-02-23T07:30:16;98624.59;;;7.97;79.21
22031;BME280;11179;52.106;21.024;2024-02-23T07:32:42;98630.88;;;7.97;79.24
22031;BME280;11179;52.106;21.024;2024-02-23T07:35:08;98632.72;;;8.02;79.08
22031;BME280;11179;52.106;21.024;2024-02-23T07:37:33;98622.88;;;8.06;79.11
22031;BME280;11179;52.106;21.024;2024-02-23T07:39:59;98636.25;;;8.08;79.57
22031;BME280;11179;52.106;21.024;2024-02-23T07:42:24;98637.56;;;8.15;79.08
22031;BME280;11179;52.106;21.024;2024-02-23T07:44:49;98641.66;;;8.18;79.32
22031;BME280;11179;52.106;21.024;2024-02-23T07:47:15;98638.66;;;8.19;79.32
22031;BME280;11179;52.106;21.024;2024-02-23T07:49:40;98643.56;;;8.22;79.10
22031;BME280;11179;52.106;21.024;2024-02-23T07:52:06;98652.81;;;8.26;79.08
22031;BME280;11179;52.106;21.024;2024-02-23T07:54:32;98656.09;;;8.28;79.11
22031;BME280;11179;52.106;21.024;2024-02-23T07:56:57;98659.09;;;8.27;79.02
22031;BME280;11179;52.106;21.024;2024-02-23T07:59:23;98658.81;;;8.28;79.18
22031;BME280;11179;52.106;21.024;2024-02-23T08:01:48;98664.56;;;8.27;78.98
22031;BME280;11179;52.106;21.024;2024-02-23T08:04:14;98665.09;;;8.29;79.13
22031;BME280;11179;52.106;21.024;2024-02-23T08:06:39;98670.00;;;8.32;79.04
22031;BME280;11179;52.106;21.024;2024-02-23T08:09:05;98671.09;;;8.36;79.16
22031;BME280;11179;52.106;21.024;2024-02-23T08:11:30;98671.63;;;8.38;79.09
22031;BME280;11179;52.106;21.024;2024-02-23T08:13:55;98688.53;;;8.40;79.01
22031;BME280;11179;52.106;21.024;2024-02-23T08:16:21;98682.25;;;8.40;78.93
22031;BME280;11179;52.106;21.024;2024-02-23T08:18:46;98681.69;;;8.43;79.06
22031;BME280;11179;52.106;21.024;2024-02-23T08:21:12;98687.97;;;8.43;78.91
22031;BME280;11179;52.106;21.024;2024-02-23T08:23:38;98694.25;;;8.44;78.82
22031;BME280;11179;52.106;21.024;2024-02-23T08:26:03;98693.69;;;8.47;79.08
22031;BME280;11179;52.106;21.024;2024-02-23T08:28:28;98694.75;;;8.51;79.02
22031;BME280;11179;52.106;21.024;2024-02-23T08:30:54;98704.53;;;8.57;78.56
22031;BME280;11179;52.106;21.024;2024-02-23T08:33:19;98704.53;;;8.57;78.56
22031;BME280;11179;52.106;21.024;2024-02-23T08:35:45;98702.63;;;8.57;79.01
22031;BME280;11179;52.106;21.024;2024-02-23T08:38:10;98707.81;;;8.59;78.90
22031;BME280;11179;52.106;21.024;2024-02-23T08:40:36;98697.16;;;8.57;78.92
22031;BME280;11179;52.106;21.024;2024-02-23T08:43:01;98716.50;;;8.66;78.88
22031;BME280;11179;52.106;21.024;2024-02-23T08:45:27;98714.28;;;8.73;78.81
22031;BME280;11179;52.106;21.024;2024-02-23T08:47:52;98727.66;;;8.75;78.71
22031;BME280;11179;52.106;21.024;2024-02-23T08:50:17;98731.75;;;8.77;78.55
22031;BME280;11179;52.106;21.024;2024-02-23T08:52:43;98724.31;;;8.83;78.49
22031;BME280;11179;52.106;21.024;2024-02-23T08:55:08;98734.44;;;8.82;78.62
22031;BME280;11179;52.106;21.024;2024-02-23T08:57:34;98732.47;;;8.88;78.72
22031;BME280;11179;52.106;21.024;2024-02-23T08:59:59;98736.56;;;8.90;78.51
22031;BME280;11179;52.106;21.024;2024-02-23T09:02:25;98739.25;;;8.95;78.54
22031;BME280;11179;52.106;21.024;2024-02-23T09:04:51;98730.19;;;9.00;78.81
22031;BME280;11179;52.106;21.024;2024-02-23T09:07:16;98744.88;;;9.09;78.39
22031;BME280;11179;52.106;21.024;2024-02-23T09:09:45;98740.72;;;9.17;78.35
22031;BME280;11179;52.106;21.024;2024-02-23T09:12:10;98742.81;;;9.25;78.36
22031;BME280;11179;52.106;21.024;2024-02-23T09:14:36;98749.06;;;9.30;78.44
22031;BME280;11179;52.106;21.024;2024-02-23T09:17:04;98748.72;;;9.37;78.20
22031;BME280;11179;52.106;21.024;2024-02-23T09:19:31;98749.19;;;9.44;78.48
22031;BME280;11179;52.106;21.024;2024-02-23T09:21:56;98752.16;;;9.48;78.00
22031;BME280;11179;52.106;21.024;2024-02-23T09:24:21;98751.88;;;9.49;78.24
22031;BME280;11179;52.106;21.024;2024-02-23T09:26:47;98743.66;;;9.49;78.22
22031;BME280;11179;52.106;21.024;2024-02-23T09:29:13;98743.31;;;9.56;78.37
22031;BME280;11179;52.106;21.024;2024-02-23T09:31:38;98750.03;;;9.68;78.26
22031;BME280;11179;52.106;21.024;2024-02-23T09:34:03;98751.84;;;9.78;77.87
22031;BME280;11179;52.106;21.024;2024-02-23T09:36:29;98754.53;;;9.83;77.92
22031;BME280;11179;52.106;21.024;2024-02-23T09:38:55;98758.56;;;9.91;77.94
22031;BME280;11179;52.106;21.024;2024-02-23T09:41:22;98759.84;;;9.98;77.95
22031;BME280;11179;52.106;21.024;2024-02-23T09:43:48;98770.97;;;10.07;77.81
22031;BME280;11179;52.106;21.024;2024-02-23T09:46:18;98769.50;;;10.14;77.56
22031;BME280;11179;52.106;21.024;2024-02-23T09:48:44;98779.88;;;10.18;77.55
22031;BME280;11179;52.106;21.024;2024-02-23T09:51:10;98779.63;;;10.14;77.55
22031;BME280;11179;52.106;21.024;2024-02-23T09:53:37;98777.72;;;10.14;77.66
22031;BME280;11179;52.106;21.024;2024-02-23T09:56:04;98781.81;;;10.17;77.42
22031;BME280;11179;52.106;21.024;2024-02-23T09:58:34;98775.16;;;10.23;77.38
22031;BME280;11179;52.106;21.024;2024-02-23T10:01:02;98776.94;;;10.33;77.52
22031;BME280;11179;52.106;21.024;2024-02-23T10:03:29;98770.78;;;10.41;77.37
22031;BME280;11179;52.106;21.024;2024-02-23T10:05:56;98781.91;;;10.49;77.17
22031;BME280;11179;52.106;21.024;2024-02-23T10:08:22;98781.97;;;10.44;76.96
22031;BME280;11179;52.106;21.024;2024-02-23T10:10:47;98785.53;;;10.45;77.09
22031;BME280;11179;52.106;21.024;2024-02-23T10:13:21;98792.44;;;10.42;76.80
22031;BME280;11179;52.106;21.024;2024-02-23T10:15:47;98793.53;;;10.41;76.91
22031;BME280;11179;52.106;21.024;2024-02-23T10:18:12;98795.16;;;10.42;76.86
22031;BME280;11179;52.106;21.024;2024-02-23T10:20:38;98792.44;;;10.42;76.63
22031;BME280;11179;52.106;21.024;2024-02-23T10:23:04;98803.13;;;10.44;76.63
22031;BME280;11179;52.106;21.024;2024-02-23T10:25:29;98806.81;;;10.34;76.39
22031;BME280;11179;52.106;21.024;2024-02-23T10:27:55;98811.78;;;10.32;76.39
22031;BME280;11179;52.106;21.024;2024-02-23T10:30:20;98812.34;;;10.29;76.44
22031;BME280;11179;52.106;21.024;2024-02-23T10:32:46;98806.97;;;10.24;76.42
22031;BME280;11179;52.106;21.024;2024-02-23T10:35:15;98816.78;;;10.25;76.31
22031;BME280;11179;52.106;21.024;2024-02-23T10:37:42;98820.72;;;10.19;76.19
22031;BME280;11179;52.106;21.024;2024-02-23T10:40:11;98824.63;;;10.13;76.18
22031;BME280;11179;52.106;21.024;2024-02-23T10:42:38;98825.16;;;10.15;76.25
22031;BME280;11179;52.106;21.024;2024-02-23T10:45:04;98830.09;;;10.13;76.10
22031;BME280;11179;52.106;21.024;2024-02-23T10:47:30;98833.97;;;10.12;76.06
22031;BME280;11179;52.106;21.024;2024-02-23T10:49:57;98838.88;;;10.15;75.95
22031;BME280;11179;52.106;21.024;2024-02-23T10:52:26;98837.19;;;10.19;75.91
22031;BME280;11179;52.106;21.024;2024-02-23T10:54:52;98844.81;;;10.22;75.96
22031;BME280;11179;52.106;21.024;2024-02-23T10:57:18;98847.03;;;10.20;75.90
22031;BME280;11179;52.106;21.024;2024-02-23T10:59:46;98847.09;;;10.15;76.00
22031;BME280;11179;52.106;21.024;2024-02-23T11:02:11;98848.19;;;10.14;75.91
22031;BME280;11179;52.106;21.024;2024-02-23T11:04:41;98841.44;;;10.06;75.91
22031;BME280;11179;52.106;21.024;2024-02-23T11:07:13;98852.03;;;10.13;75.99
22031;BME280;11179;52.106;21.024;2024-02-23T11:09:40;98851.19;;;10.18;76.15
22031;BME280;11179;52.106;21.024;2024-02-23T11:12:05;98864.31;;;10.21;75.79
22031;BME280;11179;52.106;21.024;2024-02-23T11:14:31;98865.38;;;10.25;75.82
22031;BME280;11179;52.106;21.024;2024-02-23T11:17:00;98867.22;;;10.29;75.86
22031;BME280;11179;52.106;21.024;2024-02-23T11:19:54;98869.09;;;10.34;75.97
22031;BME280;11179;52.106;21.024;2024-02-23T11:22:27;98868.00;;;10.35;75.87
22031;BME280;11179;52.106;21.024;2024-02-23T11:25:03;98870.44;;;10.36;75.71
22031;BME280;11179;52.106;21.024;2024-02-23T11:27:33;98874.28;;;10.35;75.82
22031;BME280;11179;52.106;21.024;2024-02-23T11:30:11;98871.53;;;10.35;75.87
22031;BME280;11179;52.106;21.024;2024-02-23T11:32:41;98875.63;;;10.38;75.81
22031;BME280;11179;52.106;21.024;2024-02-23T11:35:08;98890.09;;;10.43;75.83
22031;BME280;11179;52.106;21.024;2024-02-23T11:40:13;98889.84;;;10.40;75.83
22031;BME280;11179;52.106;21.024;2024-02-23T11:42:41;98897.75;;;10.46;75.99
22031;BME280;11179;52.106;21.024;2024-02-23T11:45:08;98899.81;;;10.55;75.73
22031;BME280;11179;52.106;21.024;2024-02-23T11:47:33;98900.22;;;10.67;75.86
22031;BME280;11179;52.106;21.024;2024-02-23T11:49:58;98902.38;;;10.70;75.78
22031;BME280;11179;52.106;21.024;2024-02-23T11:52:24;98908.41;;;10.72;75.76
22031;BME280;11179;52.106;21.024;2024-02-23T11:54:49;98907.59;;;10.71;75.90
22031;BME280;11179;52.106;21.024;2024-02-23T11:57:15;98913.66;;;10.68;76.24
22031;BME280;11179;52.106;21.024;2024-02-23T11:59:40;98927.38;;;10.68;76.15
22031;BME280;11179;52.106;21.024;2024-02-23T12:02:06;98922.78;;;10.64;76.00
22031;BME280;11179;52.106;21.024;2024-02-23T12:04:32;98917.78;;;10.66;76.26
22031;BME280;11179;52.106;21.024;2024-02-23T12:06:58;98921.53;;;10.75;76.10
22031;BME280;11179;52.106;21.024;2024-02-23T12:09:23;98925.94;;;10.76;76.05
22031;BME280;11179;52.106;21.024;2024-02-23T12:11:49;98933.63;;;10.74;76.16
22031;BME280;11179;52.106;21.024;2024-02-23T12:14:15;98922.28;;;10.80;76.11
22031;BME280;11179;52.106;21.024;2024-02-23T12:16:41;98930.69;;;10.89;75.98
22031;BME280;11179;52.106;21.024;2024-02-23T12:19:08;98934.69;;;10.97;76.01
22031;BME280;11179;52.106;21.024;2024-02-23T12:21:34;98939.31;;;11.01;75.87
22031;BME280;11179;52.106;21.024;2024-02-23T12:24:04;98938.72;;;11.04;75.85
22031;BME280;11179;52.106;21.024;2024-02-23T12:26:29;98934.53;;;11.07;75.70
22031;BME280;11179;52.106;21.024;2024-02-23T12:29:00;98943.00;;;11.10;75.58
22031;BME280;11179;52.106;21.024;2024-02-23T12:31:26;98948.22;;;11.12;75.80
22031;BME280;11179;52.106;21.024;2024-02-23T12:33:51;98939.69;;;11.13;75.87
22031;BME280;11179;52.106;21.024;2024-02-23T12:36:17;98940.56;;;11.09;75.89
22031;BME280;11179;52.106;21.024;2024-02-23T12:38:43;98938.34;;;11.11;75.65
22031;BME280;11179;52.106;21.024;2024-02-23T12:41:09;98943.53;;;11.12;75.68
22031;BME280;11179;52.106;21.024;2024-02-23T12:43:34;98937.19;;;11.17;75.68
22031;BME280;11179;52.106;21.024;2024-02-23T12:45:59;98939.03;;;11.22;75.81
22031;BME280;11179;52.106;21.024;2024-02-23T12:48:26;98942.53;;;11.27;75.72
22031;BME280;11179;52.106;21.024;2024-02-23T12:50:52;98945.00;;;11.29;75.66
22031;BME280;11179;52.106;21.024;2024-02-23T12:56:00;98951.50;;;11.33;75.58